createdAt,value
2023-04-23T00:02:12.158Z,27.83
2023-04-23T00:04:39.752Z,26.30
2023-04-23T00:07:07.089Z,27.63
2023-04-23T00:09:35.314Z,27.17
2023-04-23T00:12:02.392Z,27.73
2023-04-23T00:14:29.571Z,27.20
2023-04-23T00:16:56.855Z,28.10
2023-04-23T00:19:23.966Z,26.75
2023-04-23T00:21:51.394Z,26.77
2023-04-23T00:24:18.153Z,26.77
2023-04-23T00:26:44.940Z,27.48
2023-04-23T00:29:11.654Z,26.75
2023-04-23T00:31:38.552Z,27.85
2023-04-23T00:34:05.395Z,27.80
2023-04-23T00:36:32.120Z,27.20
2023-04-23T00:38:59.090Z,26.88
2023-04-23T00:41:28.245Z,27.67
2023-04-23T00:43:57.901Z,29.15
2023-04-23T00:46:26.688Z,27.83
2023-04-23T00:48:54.297Z,27.25
2023-04-23T00:51:24.624Z,27.88
2023-04-23T00:53:51.862Z,28.48
2023-04-23T00:56:19.054Z,27.40
2023-04-23T00:58:45.903Z,28.45
2023-04-23T01:01:13.938Z,26.92
2023-04-23T01:03:42.776Z,28.30
2023-04-23T01:06:09.768Z,29.02
2023-04-23T01:08:39.028Z,28.15
2023-04-23T01:11:06.109Z,28.05
2023-04-23T01:13:33.271Z,27.52
2023-04-23T01:16:00.163Z,27.63
2023-04-23T01:18:27.599Z,28.15
2023-04-23T01:20:54.562Z,26.95
2023-04-23T01:23:22.204Z,26.83
2023-04-23T01:25:49.424Z,27.67
2023-04-23T01:28:16.332Z,27.38
2023-04-23T01:30:44.071Z,28.58
2023-04-23T01:33:11.490Z,27.67
2023-04-23T01:35:40.693Z,28.63
2023-04-23T01:38:10.298Z,27.80
2023-04-23T01:40:37.873Z,27.27
2023-04-23T01:43:05.836Z,26.50
2023-04-23T01:45:32.987Z,26.15
2023-04-23T01:48:03.443Z,26.98
2023-04-23T01:50:30.247Z,27.92
2023-04-23T01:52:57.354Z,27.67
2023-04-23T01:55:24.225Z,27.05
2023-04-23T01:57:51.628Z,27.00
2023-04-23T02:00:18.788Z,25.83
2023-04-23T02:02:45.817Z,25.92
2023-04-23T02:05:15.450Z,26.23
2023-04-23T02:07:43.784Z,26.67
2023-04-23T02:10:10.966Z,25.88
2023-04-23T02:12:38.746Z,26.02
2023-04-23T02:15:07.411Z,24.92
2023-04-23T02:20:02.685Z,25.15
2023-04-23T02:22:29.768Z,26.65
2023-04-23T02:24:56.541Z,25.90
2023-04-23T02:27:23.461Z,25.27
2023-04-23T02:29:50.430Z,25.05
2023-04-23T02:32:17.314Z,26.27
2023-04-23T02:34:44.181Z,26.05
2023-04-23T02:37:10.976Z,25.88
2023-04-23T02:39:41.036Z,25.20
2023-04-23T02:42:09.405Z,24.85
2023-04-23T02:44:36.238Z,25.88
2023-04-23T02:47:03.311Z,25.70
2023-04-23T02:49:30.596Z,26.63
2023-04-23T02:51:57.406Z,26.33
2023-04-23T02:54:24.864Z,25.80
2023-04-23T02:56:51.595Z,26.20
2023-04-23T02:59:18.522Z,24.95
2023-04-23T03:01:45.247Z,27.02
2023-04-23T03:04:13.216Z,26.45
2023-04-23T03:06:40.048Z,24.92
2023-04-23T03:09:06.794Z,25.67
2023-04-23T03:11:33.977Z,26.23
2023-04-23T03:14:01.583Z,24.63
2023-04-23T03:16:29.727Z,24.58
2023-04-23T03:18:57.283Z,25.30
2023-04-23T03:21:24.207Z,23.98
2023-04-23T03:23:51.050Z,25.23
2023-04-23T03:26:17.829Z,25.30
2023-04-23T03:28:44.713Z,24.42
2023-04-23T03:31:11.739Z,23.27
2023-04-23T03:33:38.574Z,23.02
2023-04-23T03:36:05.659Z,23.13
2023-04-23T03:38:33.281Z,21.55
2023-04-23T03:43:28.607Z,20.23
2023-04-23T03:46:04.440Z,21.15
2023-04-23T03:48:35.924Z,20.58
2023-04-23T03:51:07.006Z,20.23
2023-04-23T03:53:38.908Z,19.45
2023-04-23T03:56:25.819Z,20.05
2023-04-23T03:59:25.841Z,19.50
2023-04-23T04:01:54.967Z,19.23
2023-04-23T04:04:22.020Z,18.27
2023-04-23T04:06:50.474Z,19.13
2023-04-23T04:09:17.228Z,18.17
2023-04-23T04:11:43.974Z,18.10
2023-04-23T04:14:10.920Z,18.98
2023-04-23T04:16:37.674Z,18.40
2023-04-23T04:19:04.437Z,18.38
2023-04-23T04:21:32.413Z,18.98
2023-04-23T04:24:01.630Z,18.73
2023-04-23T04:26:29.688Z,18.60
2023-04-23T04:28:58.331Z,17.45
2023-04-23T04:33:52.474Z,18.02
2023-04-23T04:36:19.324Z,18.05
2023-04-23T04:38:46.075Z,18.13
2023-04-23T04:41:13.285Z,17.90
2023-04-23T04:43:41.310Z,17.63
2023-04-23T04:46:11.667Z,17.90
2023-04-23T04:48:39.120Z,17.52
2023-04-23T04:51:05.979Z,18.33
2023-04-23T04:53:32.798Z,17.58
2023-04-23T04:55:59.562Z,16.83
2023-04-23T04:58:26.371Z,16.88
2023-04-23T05:00:53.322Z,17.05
2023-04-23T05:03:20.916Z,16.73
2023-04-23T05:05:48.672Z,16.75
2023-04-23T05:08:17.038Z,16.52
2023-04-23T05:10:44.375Z,16.70
2023-04-23T05:13:11.167Z,16.25
2023-04-23T05:15:38.126Z,16.00
2023-04-23T05:18:06.301Z,16.45
2023-04-23T05:20:33.210Z,15.60
2023-04-23T05:23:00.061Z,15.80
2023-04-23T05:25:27.286Z,15.98
2023-04-23T05:27:54.033Z,15.52
2023-04-23T05:30:20.961Z,16.08
2023-04-23T05:32:47.766Z,15.38
2023-04-23T05:35:14.554Z,15.57
2023-04-23T05:37:41.438Z,16.10
2023-04-23T05:40:09.204Z,15.32
2023-04-23T05:42:36.419Z,15.20
2023-04-23T05:45:05.557Z,15.88
2023-04-23T05:47:34.209Z,15.77
2023-04-23T05:50:02.445Z,15.02
2023-04-23T05:52:33.384Z,14.50
2023-04-23T05:55:00.236Z,15.30
2023-04-23T05:57:26.965Z,15.57
2023-04-23T05:59:53.774Z,15.05
2023-04-23T06:02:23.191Z,14.40
2023-04-23T06:04:52.121Z,14.07
2023-04-23T06:07:19.117Z,14.32
2023-04-23T06:09:45.845Z,14.70
2023-04-23T06:12:12.677Z,14.55
2023-04-23T06:14:39.628Z,13.98
2023-04-23T06:17:06.588Z,13.30
2023-04-23T06:19:33.441Z,13.18
2023-04-23T06:22:00.630Z,13.32
2023-04-23T06:24:27.448Z,12.85
2023-04-23T06:26:54.570Z,13.32
2023-04-23T06:29:22.222Z,13.35
2023-04-23T06:32:07.009Z,12.18
2023-04-23T06:34:33.831Z,12.77
2023-04-23T06:37:00.694Z,12.82
2023-04-23T06:39:27.545Z,12.48
2023-04-23T06:41:54.559Z,11.40
2023-04-23T06:44:34.555Z,11.55
2023-04-23T06:47:05.001Z,11.50
2023-04-23T06:49:31.933Z,11.60
2023-04-23T06:51:58.728Z,11.13
2023-04-23T06:54:26.065Z,10.90
2023-04-23T06:56:52.814Z,11.98
2023-04-23T06:59:19.775Z,10.80
2023-04-23T07:01:50.534Z,11.13
2023-04-23T07:04:17.389Z,10.45
2023-04-23T07:06:44.168Z,10.70
2023-04-23T07:09:11.278Z,10.38
2023-04-23T07:11:38.078Z,9.98
2023-04-23T07:14:04.976Z,9.23
2023-04-23T07:16:33.952Z,9.18
2023-04-23T07:19:02.116Z,8.15
2023-04-23T07:21:29.677Z,8.55
2023-04-23T07:23:58.240Z,8.55
2023-04-23T07:28:52.897Z,7.63
2023-04-23T07:31:20.615Z,8.30
2023-04-23T07:33:47.839Z,7.85
2023-04-23T07:36:14.658Z,8.05
2023-04-23T07:38:41.461Z,6.65
2023-04-23T07:41:08.285Z,6.95
2023-04-23T07:43:35.069Z,6.07
2023-04-23T07:46:01.890Z,6.90
2023-04-23T07:48:28.742Z,7.13
2023-04-23T07:50:56.562Z,6.53
2023-04-23T07:53:23.421Z,7.00
2023-04-23T07:55:53.154Z,6.18
2023-04-23T07:58:19.956Z,5.00
2023-04-23T08:00:46.755Z,5.22
2023-04-23T08:03:13.892Z,5.55
2023-04-23T08:05:41.326Z,5.45
2023-04-23T08:08:09.029Z,4.75
2023-04-23T08:10:35.917Z,4.57
2023-04-23T08:13:02.899Z,4.32
2023-04-23T08:15:29.754Z,4.70
2023-04-23T08:17:56.570Z,4.95
2023-04-23T08:20:23.584Z,4.05
2023-04-23T08:22:53.596Z,4.18
2023-04-23T08:25:23.219Z,3.95
2023-04-23T08:27:50.120Z,3.95
2023-04-23T08:30:18.004Z,3.97
2023-04-23T08:32:44.794Z,3.58
2023-04-23T08:35:12.751Z,3.80
2023-04-23T08:37:40.127Z,3.63
2023-04-23T08:40:08.601Z,3.20
2023-04-23T08:43:01.732Z,3.20
2023-04-23T08:45:30.580Z,3.28
2023-04-23T08:48:02.715Z,3.22
2023-04-23T08:50:31.071Z,3.17
2023-04-23T08:52:58.437Z,2.90
2023-04-23T08:55:26.136Z,3.10
2023-04-23T08:57:53.019Z,2.58
2023-04-23T09:00:23.090Z,2.97
2023-04-23T09:02:50.238Z,3.17
2023-04-23T09:05:17.341Z,3.10
2023-04-23T09:07:44.583Z,3.13
2023-04-23T09:10:13.394Z,2.40
2023-04-23T09:12:43.206Z,2.90
2023-04-23T09:15:11.061Z,2.80
2023-04-23T09:17:44.020Z,2.42
2023-04-23T09:20:12.273Z,2.60
2023-04-23T09:25:19.598Z,2.33
2023-04-23T09:27:48.127Z,2.38
2023-04-23T09:30:15.739Z,2.50
2023-04-23T09:32:43.961Z,2.80
2023-04-23T09:35:14.148Z,2.60
2023-04-23T09:37:49.876Z,2.33
2023-04-23T09:40:19.844Z,2.42
2023-04-23T09:42:53.098Z,2.42
2023-04-23T09:45:20.317Z,2.88
2023-04-23T09:47:52.514Z,2.60
2023-04-23T09:50:39.051Z,2.45
2023-04-23T09:53:07.478Z,2.65
2023-04-23T09:55:39.349Z,2.30
2023-04-23T09:58:11.489Z,2.53
2023-04-23T10:00:39.658Z,2.22
2023-04-23T10:08:13.914Z,2.22
2023-04-23T10:10:56.784Z,2.20
2023-04-23T10:13:28.019Z,2.40
2023-04-23T10:15:59.020Z,2.42
2023-04-23T10:18:33.364Z,2.22
2023-04-23T10:21:02.369Z,2.35
2023-04-23T10:23:29.799Z,2.30
2023-04-23T10:25:59.348Z,2.40
2023-04-23T10:28:31.974Z,2.22
2023-04-23T10:31:00.656Z,2.22
2023-04-23T10:33:35.422Z,1.77
2023-04-23T10:36:07.464Z,2.05
2023-04-23T10:38:36.678Z,2.25
2023-04-23T10:41:07.565Z,1.90
2023-04-23T10:43:34.941Z,1.67
2023-04-23T10:46:02.259Z,2.00
2023-04-23T10:48:29.102Z,1.63
2023-04-23T10:51:12.861Z,1.63
2023-04-23T10:53:46.100Z,1.75
2023-04-23T10:56:12.912Z,2.15
2023-04-23T10:58:50.591Z,2.08
2023-04-23T11:01:18.757Z,1.77
2023-04-23T11:03:45.897Z,1.67
2023-04-23T11:06:17.615Z,1.60
2023-04-23T11:08:54.527Z,2.00
2023-04-23T11:11:41.529Z,1.70
2023-04-23T11:16:41.472Z,1.70
2023-04-23T11:19:18.357Z,1.65
2023-04-23T11:21:59.548Z,1.45
2023-04-23T11:24:30.608Z,1.35
2023-04-23T11:26:58.121Z,1.58
2023-04-23T11:29:26.926Z,1.60
2023-04-23T11:32:02.679Z,1.70
2023-04-23T11:34:32.160Z,1.95
2023-04-23T11:37:00.743Z,1.48
2023-04-23T11:39:28.358Z,1.63
2023-04-23T11:41:55.342Z,1.58
2023-04-23T11:44:22.506Z,1.40
2023-04-23T11:46:50.269Z,1.77
2023-04-23T11:49:18.692Z,1.55
2023-04-23T11:51:46.570Z,1.42
2023-04-23T11:54:14.631Z,1.55
2023-04-23T11:56:41.926Z,1.50
2023-04-23T11:59:09.613Z,1.60
2023-04-23T12:01:46.835Z,1.50
2023-04-23T12:04:21.401Z,1.50
2023-04-23T12:06:49.836Z,1.20
2023-04-23T12:09:19.002Z,1.65
2023-04-23T12:11:46.119Z,1.77
2023-04-23T12:14:14.463Z,1.90
2023-04-23T12:16:43.384Z,1.50
2023-04-23T12:19:13.732Z,1.35
2023-04-23T12:21:55.713Z,1.42
2023-04-23T12:24:23.828Z,1.35
2023-04-23T12:26:54.572Z,1.30
2023-04-23T12:29:23.264Z,1.40
2023-04-23T12:31:52.226Z,1.38
2023-04-23T12:34:21.006Z,1.30
2023-04-23T12:36:53.963Z,1.60
2023-04-23T12:39:31.386Z,1.23
2023-04-23T12:42:01.562Z,1.30
2023-04-23T12:44:29.261Z,1.40
2023-04-23T12:47:04.918Z,1.60
2023-04-23T12:49:32.864Z,1.40
2023-04-23T12:52:01.607Z,1.30
2023-04-23T12:54:37.417Z,1.20
2023-04-23T12:57:05.977Z,1.38
2023-04-23T13:02:02.707Z,1.45
2023-04-23T13:04:34.778Z,1.55
2023-04-23T13:07:02.126Z,1.40
2023-04-23T13:09:30.156Z,1.60
2023-04-23T13:11:57.420Z,1.50
2023-04-23T13:14:24.157Z,1.40
2023-04-23T13:16:51.139Z,1.65
2023-04-23T13:19:18.033Z,1.33
2023-04-23T13:21:45.450Z,1.27
2023-04-23T13:24:12.240Z,1.40
2023-04-23T13:26:39.138Z,1.40
2023-04-23T13:29:06.301Z,1.10
2023-04-23T13:31:33.646Z,1.48
2023-04-23T13:34:02.836Z,1.40
2023-04-23T13:36:29.806Z,1.40
2023-04-23T13:38:56.701Z,1.40
2023-04-23T13:41:23.508Z,1.58
2023-04-23T13:43:50.436Z,1.30
2023-04-23T13:46:17.289Z,1.40
2023-04-23T13:48:44.132Z,1.33
2023-04-23T13:51:21.770Z,1.30
2023-04-23T13:56:26.793Z,1.10
2023-04-23T13:59:02.187Z,1.20
2023-04-23T14:01:35.288Z,1.20
2023-04-23T14:04:04.294Z,1.40
2023-04-23T14:06:31.528Z,1.50
2023-04-23T14:08:58.395Z,1.17
2023-04-23T14:11:25.423Z,1.30
2023-04-23T14:13:52.262Z,1.20
2023-04-23T14:16:19.064Z,1.40
2023-04-23T14:18:45.825Z,1.30
2023-04-23T14:21:14.310Z,1.30
2023-04-23T14:23:48.651Z,1.30
2023-04-23T14:26:48.167Z,1.38
2023-04-23T14:29:40.260Z,1.38
2023-04-23T14:32:07.603Z,1.30
2023-04-23T14:34:37.461Z,1.40
2023-04-23T14:37:04.602Z,1.42
2023-04-23T14:39:31.479Z,1.17
2023-04-23T14:41:58.466Z,1.40
2023-04-23T14:44:28.450Z,1.23
2023-04-23T14:46:56.394Z,1.20
2023-04-23T14:49:23.947Z,1.08
2023-04-23T14:51:55.349Z,1.48
2023-04-23T14:54:22.756Z,1.42
2023-04-23T14:56:50.679Z,1.20
2023-04-23T14:59:17.676Z,1.23
2023-04-23T15:01:44.833Z,1.45
2023-04-23T15:04:12.002Z,1.42
2023-04-23T15:06:40.452Z,1.40
2023-04-23T15:11:33.998Z,1.42
2023-04-23T15:14:25.166Z,1.58
2023-04-23T15:16:52.565Z,1.40
2023-04-23T15:19:20.779Z,1.58
2023-04-23T15:21:48.432Z,1.40
2023-04-23T15:24:16.281Z,1.65
2023-04-23T15:26:43.638Z,1.40
2023-04-23T15:29:10.736Z,1.30
2023-04-23T15:31:38.525Z,1.80
2023-04-23T15:34:08.685Z,1.52
2023-04-23T15:36:37.437Z,1.60
2023-04-23T15:41:31.349Z,1.90
2023-04-23T15:43:58.161Z,1.80
2023-04-23T15:46:24.909Z,1.30
2023-04-23T15:48:51.735Z,1.60
2023-04-23T15:51:18.570Z,1.40
2023-04-23T15:53:45.357Z,1.48
2023-04-23T15:56:12.128Z,1.70
2023-04-23T15:58:39.013Z,1.58
2023-04-23T16:01:07.312Z,1.50
2023-04-23T16:03:34.608Z,1.92
2023-04-23T16:06:01.847Z,1.38
2023-04-23T16:08:28.605Z,1.33
2023-04-23T16:10:57.068Z,1.70
2023-04-23T16:13:25.004Z,1.50
2023-04-23T16:15:51.804Z,1.73
2023-04-23T16:18:18.736Z,1.88
2023-04-23T16:20:45.574Z,1.60
2023-04-23T16:23:12.994Z,1.27
2023-04-23T16:25:39.855Z,1.60
2023-04-23T16:28:06.715Z,1.20
2023-04-23T16:30:33.618Z,1.40
2023-04-23T16:33:00.477Z,1.40
2023-04-23T16:35:27.762Z,1.30
2023-04-23T16:37:54.497Z,1.17
2023-04-23T16:40:21.514Z,1.30
2023-04-23T16:42:48.933Z,1.20
2023-04-23T16:45:16.102Z,1.30
2023-04-23T16:47:45.655Z,1.58
2023-04-23T16:50:12.541Z,1.40
2023-04-23T16:52:39.327Z,1.40
2023-04-23T16:55:07.104Z,1.40
2023-04-23T17:00:05.136Z,1.50
2023-04-23T17:02:32.557Z,1.73
2023-04-23T17:04:59.469Z,1.30
2023-04-23T17:07:26.450Z,1.70
2023-04-23T17:09:53.230Z,1.27
2023-04-23T17:12:19.998Z,1.10
2023-04-23T17:14:46.719Z,1.65
2023-04-23T17:17:13.525Z,1.20
2023-04-23T17:19:40.643Z,1.30
2023-04-23T17:22:08.942Z,1.50
2023-04-23T17:24:37.018Z,1.30
2023-04-23T17:27:05.425Z,1.60
2023-04-23T17:29:32.368Z,1.42
2023-04-23T17:31:59.463Z,1.55
2023-04-23T17:34:26.294Z,1.50
2023-04-23T17:36:53.094Z,1.50
2023-04-23T17:39:22.850Z,1.27
2023-04-23T17:41:49.655Z,1.40
2023-04-23T17:44:16.484Z,1.27
2023-04-23T17:46:43.222Z,1.63
2023-04-23T17:49:10.599Z,1.63
2023-04-23T17:51:37.563Z,1.50
2023-04-23T17:54:04.890Z,1.40
2023-04-23T17:56:32.049Z,1.40
2023-04-23T17:58:58.796Z,1.77
2023-04-23T18:01:25.879Z,2.00
2023-04-23T18:03:53.410Z,1.40
2023-04-23T18:06:20.629Z,1.60
2023-04-23T18:08:47.467Z,1.50
2023-04-23T18:11:14.406Z,1.80
2023-04-23T18:13:41.353Z,2.30
2023-04-23T18:16:08.160Z,2.03
2023-04-23T18:18:35.035Z,2.22
2023-04-23T18:21:02.009Z,2.15
2023-04-23T18:23:29.330Z,2.03
2023-04-23T18:25:56.618Z,1.85
2023-04-23T18:28:23.365Z,2.10
2023-04-23T18:30:50.204Z,1.75
2023-04-23T18:33:38.087Z,2.10
2023-04-23T18:36:24.706Z,1.92
2023-04-23T18:38:51.599Z,1.90
2023-04-23T18:41:18.515Z,2.03
2023-04-23T18:43:45.364Z,1.90
2023-04-23T18:46:13.061Z,2.10
2023-04-23T18:48:53.080Z,1.92
2023-04-23T18:51:24.444Z,2.00
2023-04-23T18:53:51.272Z,2.20
2023-04-23T18:56:18.157Z,3.17
2023-04-23T18:58:44.973Z,2.05
2023-04-23T19:01:11.823Z,2.10
2023-04-23T19:03:38.834Z,1.88
2023-04-23T19:06:07.622Z,2.30
2023-04-23T19:08:37.851Z,1.90
2023-04-23T19:11:05.195Z,1.77
2023-04-23T19:13:31.998Z,1.80
2023-04-23T19:15:59.559Z,1.90
2023-04-23T19:18:26.412Z,1.85
2023-04-23T19:20:53.413Z,1.88
2023-04-23T19:23:20.398Z,1.90
2023-04-23T19:25:48.042Z,1.50
2023-04-23T19:28:14.947Z,1.80
2023-04-23T19:30:41.754Z,1.73
2023-04-23T19:33:08.538Z,1.75
2023-04-23T19:35:36.752Z,2.10
2023-04-23T19:38:04.797Z,1.80
2023-04-23T19:40:31.678Z,1.80
2023-04-23T19:42:58.454Z,2.00
2023-04-23T19:45:26.840Z,2.00
2023-04-23T19:47:53.994Z,2.08
2023-04-23T19:50:20.996Z,2.05
2023-04-23T19:52:47.910Z,2.03
2023-04-23T19:55:14.799Z,2.00
2023-04-23T19:57:41.615Z,2.10
2023-04-23T20:00:13.434Z,2.00
2023-04-23T20:02:43.361Z,1.83
2023-04-23T20:05:10.576Z,2.00
2023-04-23T20:07:38.307Z,1.90
2023-04-23T20:10:05.700Z,1.98
2023-04-23T20:12:33.387Z,1.70
2023-04-23T20:15:00.290Z,2.00
2023-04-23T20:17:29.600Z,2.20
2023-04-23T20:20:01.547Z,2.10
2023-04-23T20:22:29.755Z,2.20
2023-04-23T20:24:57.450Z,2.13
2023-04-23T20:27:24.283Z,2.20
2023-04-23T20:29:51.454Z,2.00
2023-04-23T20:32:18.293Z,2.15
2023-04-23T20:34:45.041Z,2.10
2023-04-23T20:37:12.429Z,2.03
2023-04-23T20:39:39.224Z,1.70
2023-04-23T20:42:07.106Z,1.60
2023-04-23T20:44:34.352Z,1.70
2023-04-23T20:47:04.829Z,1.60
2023-04-23T20:49:32.465Z,1.50
2023-04-23T20:51:59.831Z,1.52
2023-04-23T20:54:26.633Z,1.58
2023-04-23T20:56:54.251Z,1.50
2023-04-23T20:59:21.828Z,1.50
2023-04-23T21:01:49.743Z,1.40
2023-04-23T21:04:16.995Z,1.42
2023-04-23T21:06:44.272Z,1.65
2023-04-23T21:09:11.338Z,1.65
2023-04-23T21:11:38.619Z,1.50
2023-04-23T21:14:08.850Z,1.55
2023-04-23T21:16:36.831Z,1.30
2023-04-23T21:19:04.868Z,1.60
2023-04-23T21:21:32.575Z,1.42
2023-04-23T21:24:00.956Z,1.63
2023-04-23T21:26:31.379Z,1.23
2023-04-23T21:28:58.301Z,1.35
2023-04-23T21:31:54.462Z,1.27
2023-04-23T21:34:22.063Z,1.27
2023-04-23T21:36:49.232Z,0.90
2023-04-23T21:39:16.333Z,1.00
2023-04-23T21:41:44.784Z,1.00
2023-04-23T21:44:11.617Z,1.02
2023-04-23T21:46:38.388Z,0.85
2023-04-23T21:49:05.410Z,0.90
2023-04-23T21:51:36.848Z,0.90
2023-04-23T21:54:05.588Z,0.88
2023-04-23T21:56:32.948Z,0.73
2023-04-23T21:59:00.003Z,0.90
2023-04-23T22:01:26.859Z,0.68
2023-04-23T22:03:53.840Z,0.90
2023-04-23T22:06:21.140Z,0.80
2023-04-23T22:08:47.998Z,0.90
2023-04-23T22:11:15.058Z,1.00
2023-04-23T22:13:41.893Z,0.85
2023-04-23T22:16:20.719Z,1.00
2023-04-23T22:18:55.282Z,1.15
2023-04-23T22:21:22.063Z,1.00
2023-04-23T22:23:48.915Z,0.93
2023-04-23T22:26:15.809Z,0.90
2023-04-23T22:28:43.766Z,1.00
2023-04-23T22:31:11.116Z,1.05
2023-04-23T22:33:37.925Z,1.40
2023-04-23T22:36:05.356Z,1.10
2023-04-23T22:38:32.201Z,1.10
2023-04-23T22:40:59.566Z,1.40
2023-04-23T22:43:26.529Z,1.20
2023-04-23T22:45:53.421Z,1.42
2023-04-23T22:48:20.268Z,1.17
2023-04-23T22:50:47.014Z,1.42
2023-04-23T22:53:13.841Z,1.42
2023-04-23T22:55:40.705Z,1.70
2023-04-23T22:58:07.482Z,1.80
2023-04-23T23:00:34.211Z,2.17
2023-04-23T23:03:01.129Z,2.33
2023-04-23T23:05:28.010Z,3.13
2023-04-23T23:07:55.604Z,3.00
2023-04-23T23:10:23.093Z,2.60
2023-04-23T23:12:50.361Z,1.85
2023-04-23T23:15:17.150Z,1.60
2023-04-23T23:17:43.951Z,1.40
2023-04-23T23:20:11.937Z,1.08
2023-04-23T23:22:38.852Z,1.30
2023-04-23T23:25:07.386Z,0.90
2023-04-23T23:27:34.159Z,0.95
2023-04-23T23:30:05.543Z,0.90
2023-04-23T23:32:33.264Z,1.00
2023-04-23T23:35:00.373Z,0.90
2023-04-23T23:37:27.450Z,1.10
2023-04-23T23:39:54.178Z,0.98
2023-04-23T23:42:21.140Z,1.02
2023-04-23T23:44:47.953Z,1.10
2023-04-23T23:47:14.905Z,1.10
2023-04-23T23:49:42.079Z,1.10
2023-04-23T23:52:09.017Z,1.13
2023-04-23T23:54:36.007Z,0.90
2023-04-23T23:57:03.050Z,0.95
2023-04-23T23:59:29.827Z,1.10
